Flight Track Log - Related Links

Times and Time Zones

All times are in EDT time to prevent confusion due to time zone crossing. See the UAL4236 flight status page for this flight to view local times or setup timezone preferences in your user account.

Time Position Orientation Groundspeed Altitude Reporting Facility
EDT Latitude Longitude Course Direction KTS MPH feet Rate Location/Type
Fri 12:16:08 PM 31.7431 -106.4186 159° South 245 282 7,100  Level Albuquerque Center
Fri 12:17:00 PM 31.7669 -106.0441 103° East  Level Estimated
Fri 12:17:09 PM 31.7069 -106.3492 121° Southeast 248 285 8,500  Level Albuquerque Center
Fri 12:18:00 PM 31.7533 -105.9334 96° East  Level Estimated
Fri 12:18:11 PM 31.6875 -106.2575 104° East 286 329 10,200  Level Albuquerque Center
Fri 12:19:00 PM 31.7368 -105.8233 100° East  Level FlightAware Approximate
Fri 12:19:14 PM 31.6311 -106.1733 128° Southeast 318 366 11,300  Level Albuquerque Center
Fri 12:20:00 PM 31.7197 -105.7048 100° East  Level FlightAware Approximate
Fri 12:20:16 PM 31.5736 -106.0808 126° Southeast 342 394 12,300  Level Albuquerque Center
Fri 12:21:18 PM 31.5133 -105.9839 126° Southeast 362 417 13,400 1,161 Climbing Albuquerque Center
Fri 12:22:20 PM 31.4392 -105.8656 126° Southeast 373 429 14,700 1,210 Climbing Albuquerque Center
Fri 12:23:22 PM 31.3894 -105.7578 118° Southeast 377 434 15,900 1,113 Climbing Albuquerque Center
Fri 12:24:24 PM 31.3575 -105.6383 107° East 382 440 17,000 968 Climbing Albuquerque Center
Fri 12:25:26 PM 31.3508 -105.5136 94° East 383 441 17,900 968 Climbing Albuquerque Center
Fri 12:26:28 PM 31.3433 -105.3906 94° East 381 438 19,000 1,065 Climbing Albuquerque Center
Fri 12:27:30 PM 31.3369 -105.2664 93° East 380 437 20,100 1,113 Climbing Albuquerque Center
Fri 12:28:32 PM 31.3278 -105.1169 94° East 381 438 21,300 1,113 Climbing Albuquerque Center
Fri 12:29:34 PM 31.3208 -104.9919 94° East 382 440 22,400 1,016 Climbing Albuquerque Center
Fri 12:30:36 PM 31.3125 -104.8669 94° East 383 441 23,400 968 Climbing Albuquerque Center
Fri 12:31:38 PM 31.3056 -104.7419 94° East 384 442 24,400 1,016 Climbing Albuquerque Center
Fri 12:32:40 PM 31.2978 -104.6178 94° East 383 441 25,500 1,016 Climbing Albuquerque Center
Fri 12:33:42 PM 31.2903 -104.4939 94° East 382 440 26,500 968 Climbing Albuquerque Center
Fri 12:34:44 PM 31.2833 -104.3706 94° East 381 438 27,500 1,113 Climbing Albuquerque Center
Fri 12:35:46 PM 31.2736 -104.2236 94° East 378 435 28,800 1,113 Climbing Albuquerque Center
Fri 12:36:48 PM 31.2650 -104.1011 95° East 378 435 29,800 960 Climbing Albuquerque Center
Fri 12:37:51 PM 31.2569 -103.9786 94° East 379 436 30,800 960 Climbing Albuquerque Center
Fri 12:38:53 PM 31.2483 -103.8569 95° East 377 434 31,800 1,065 Climbing Albuquerque Center
Fri 12:39:55 PM 31.2383 -103.7200 95° East 374 430 33,000 1,065 Climbing Albuquerque Center
Fri 12:40:57 PM 31.2281 -103.6011 96° East 371 427 34,000 774 Climbing Albuquerque Center
Fri 12:41:59 PM 31.2206 -103.4819 94° East 369 425 34,600 484 Climbing Albuquerque Center
Fri 12:43:01 PM 31.2111 -103.3592 95° East 377 434 35,000 194 Climbing Albuquerque Center
Fri 12:44:03 PM 31.2019 -103.2297 95° East 397 457 35,000  Level Albuquerque Center
Fri 12:45:05 PM 31.1894 -103.0947 96° East 411 473 35,000  Level Albuquerque Center
Fri 12:46:07 PM 31.1783 -102.9269 94° East 423 487 35,000  Level Albuquerque Center
Fri 12:47:09 PM 31.1669 -102.7842 95° East 434 499 35,000  Level Albuquerque Center
Fri 12:48:12 PM 31.1550 -102.6403 96° East 442 509 35,000  Level Albuquerque Center
Fri 12:49:14 PM 31.1456 -102.4925 94° East 457 526 35,000  Level Albuquerque Center
Fri 12:50:16 PM 31.1333 -102.3456 96° East 460 529 35,000  Level Albuquerque Center
Fri 12:50:51 PM 31.1233 -102.2653 98° East 453 521 35,000  Level Houston Center
Fri 12:51:53 PM 31.1111 -102.0919 95° East 457 526 35,000  Level Houston Center
Fri 12:52:55 PM 31.1003 -101.9483 95° East 452 520 35,000  Level Houston Center
Fri 12:53:57 PM 31.0878 -101.8050 96° East 448 516 35,000  Level Houston Center
Fri 12:54:59 PM 31.0753 -101.6603 96° East 450 518 35,000  Level Houston Center
Fri 12:56:01 PM 31.0606 -101.4869 96° East 450 518 35,000  Level Houston Center
Fri 12:57:03 PM 31.0478 -101.3414 96° East 451 519 35,000  Level Houston Center
Fri 12:58:05 PM 31.0339 -101.1869 96° East 453 521 35,000  Level Houston Center
Fri 12:59:08 PM 31.0214 -101.0403 96° East 454 522 35,000  Level Houston Center
Fri 01:00:10 PM 31.0081 -100.8947 96° East 452 520 35,000  Level Houston Center
Fri 01:01:12 PM 30.9953 -100.7486 96° East 453 521 35,000  Level Houston Center
Fri 01:02:14 PM 30.9811 -100.6044 97° East 449 517 35,000  Level Houston Center
Fri 01:03:16 PM 30.9683 -100.4578 96° East 453 521 35,000  Level Houston Center
Fri 01:04:18 PM 30.9533 -100.3122 97° East 452 520 35,000  Level Houston Center
Fri 01:05:20 PM 30.9367 -100.1375 96° East 453 521 35,000  Level Houston Center
Fri 01:06:22 PM 30.9222 -99.9914 97° East 452 520 35,000  Level Houston Center
Fri 01:07:24 PM 30.9086 -99.8464 96° East 451 519 35,000  Level Houston Center
Fri 01:08:27 PM 30.8933 -99.7003 97° East 453 521 35,000  Level Houston Center
Fri 01:09:29 PM 30.8789 -99.5536 97° East 455 524 35,000  Level Houston Center
Fri 01:10:31 PM 30.8644 -99.4081 97° East 453 521 35,000  Level Houston Center
Fri 01:11:33 PM 30.8547 -99.2311 94° East 456 525 35,000  Level Houston Center
Fri 01:12:35 PM 30.8564 -99.1006 89° East 455 524 35,000  Level Houston Center
Fri 01:13:37 PM 30.8561 -98.9283 90° East 454 522 35,000  Level Houston Center
Fri 01:14:39 PM 30.8572 -98.7800 89° East 454 522 35,000  Level Houston Center
Fri 01:15:42 PM 30.8567 -98.6314 90° East 455 524 35,000  Level Houston Center
Fri 01:16:44 PM 30.8553 -98.4819 91° East 456 525 35,000  Level Houston Center
Fri 01:17:46 PM 30.8542 -98.3331 90° East 455 524 35,000  Level Houston Center
Fri 01:18:48 PM 30.8531 -98.1828 90° East 459 528 35,000  Level Houston Center
Fri 01:19:50 PM 30.8522 -98.0336 90° East 458 527 35,000  Level Houston Center
Fri 01:20:52 PM 30.8506 -97.8583 91° East 460 529 35,000  Level Houston Center
Fri 01:21:54 PM 30.8492 -97.7108 91° East 456 525 35,000  Level Houston Center
Fri 01:22:56 PM 30.8464 -97.5628 91° East 456 525 35,000  Level Houston Center
Fri 01:23:58 PM 30.8433 -97.4156 91° East 456 525 35,000 -144 Level Houston Center
Fri 01:25:01 PM 30.8358 -97.2536 93° East 460 529 34,700 -672 Descending Houston Center
Fri 01:26:03 PM 30.7928 -97.1011 108° East 467 537 33,600 -1,790 Descending Houston Center
Fri 01:27:05 PM 30.7558 -96.9603 107° East 456 525 31,000 -2,516 Descending Houston Center
Fri 01:28:07 PM 30.7172 -96.8233 108° East 450 518 28,400 -2,579 Descending Houston Center
Fri 01:28:52 PM 30.6858 -96.7122 108° East 450 518 26,400 -2,468 Descending Houston Center
Fri 01:30:11 PM 30.6408 -96.5386 107° East 460 529 23,300 -2,553 Descending Houston Center
Fri 01:31:13 PM 30.5986 -96.3894 108° East 431 496 20,400 -2,732 Descending Houston Center
Fri 01:32:14 PM 30.5622 -96.2528 107° East 424 488 17,700 -2,439 Descending Houston Center
Fri 01:33:16 PM 30.5269 -96.1331 109° East 394 453 15,400 -2,140 Descending Houston Center
Fri 01:34:23 PM 30.4894 -95.9919 107° East 391 450 13,100 -1,547 Descending Houston Center
Fri 01:35:24 PM 30.4544 -95.8775 110° East 367 422 12,100 -595 Descending Houston Center
Fri 01:36:24 PM 30.3953 -95.8022 132° Southeast 332 382 11,900 -541 Descending Houston Center
Fri 01:37:26 PM 30.3356 -95.7394 138° Southeast 293 337 11,000 -919 Descending Houston Center
Fri 01:38:28 PM 30.2747 -95.6769 138° Southeast 291 335 10,000 -968 Descending Houston Center
Fri 01:39:30 PM 30.2150 -95.6150 138° Southeast 290 334 9,000 -1,016 Descending Houston Center
Fri 01:40:32 PM 30.1561 -95.5519 137° Southeast 289 333 7,900 -968 Descending Houston Center
Fri 01:41:34 PM 30.1083 -95.4825 128° Southeast 284 327 7,000 -432 Descending Houston Center
Fri 01:42:37 PM 30.1058 -95.3756 92° East 280 322 7,000 -336 Level Houston Center
Fri 01:43:39 PM 30.1064 -95.2858 90° East 280 322 6,300 -823 Descending Houston Center
Fri 01:44:41 PM 30.1061 -95.2042 90° East 262 302 5,300 -667 Descending Houston Center
Fri 01:45:36 PM 30.1061 -95.1328 90° East 232 267 5,000 -145 Descending Houston Center
Fri 01:46:45 PM 30.0939 -95.0572 101° East 242 278 5,000 -393 Level Houston Center
Fri 01:47:38 PM 30.0319 -95.0600 182° South 226 260 4,200 -1,100 Descending Houston Center
Fri 01:48:45 PM 29.9964 -95.1269 238° Southwest 230 265 2,800 -977 Descending Houston Center
Fri 01:49:47 PM 29.9947 -95.1997 269° West 220 253 2,100 -744 Descending Houston Center
Fri 01:50:54 PM 29.9942 -95.2633 269° West 213 245 1,200 -828 Descending Houston Center
Fri 01:51:43 PM 29.9936 -95.3036 269° West 133 153 500 -435 Descending Houston Center
Fri 01:52:58 PM 29.9956 -95.3603 272° West 163 188 300 -160 Descending Houston Center

Login

Don't have an account? Register now (free) for customized features, flight alerts, and more!